Time;durP1;ratioP1;P1;durP2;ratioP2;P2;SDS_P1;SDS_P2;PMS_P1;PMS_P2;Temp;Humidity;BMP_temperature;BMP_pressure;BME280_temperature;BME280_humidity;BME280_pressure;Samples;Min_cycle;Max_cycle;Signal;HPM_P1;HPM_P2
2022/03/07 00:02:44;;;;;;;5.70;5.10;;;;;;;4.93;35.43;98559.53;8338061;28;20417;-86
2022/03/07 00:06:48;;;;;;;5.63;5.13;;;;;;;4.78;35.63;98557.97;8349000;28;20255;-83
2022/03/07 00:10:53;;;;;;;6.03;5.43;;;;;;;4.85;35.64;98563.88;8347361;28;20240;-84
2022/03/07 00:14:56;;;;;;;7.93;4.80;;;;;;;4.45;36.10;98556.63;8348229;28;20236;-85
2022/03/07 00:19:00;;;;;;;6.90;5.13;;;;;;;4.84;35.83;98550.19;8347562;28;20235;-85
2022/03/07 00:23:03;;;;;;;6.83;5.57;;;;;;;5.00;35.73;98555.16;8348103;28;20238;-85
2022/03/07 00:27:08;;;;;;;5.90;5.10;;;;;;;4.96;35.47;98554.34;8314712;28;20229;-85
2022/03/07 00:31:11;;;;;;;5.93;5.10;;;;;;;4.76;34.93;98554.59;8314270;28;20255;-85
2022/03/07 00:35:16;;;;;;;4.87;4.37;;;;;;;4.63;34.95;98563.28;8314868;28;20528;-85
2022/03/07 00:39:19;;;;;;;6.63;4.83;;;;;;;4.61;34.74;98570.16;8314578;28;20254;-86
2022/03/07 00:43:24;;;;;;;5.43;4.47;;;;;;;4.92;34.28;98564.66;8313963;28;20434;-86
2022/03/07 00:47:28;;;;;;;5.00;4.50;;;;;;;5.01;34.72;98562.00;8314209;28;20228;-86
2022/03/07 00:51:31;;;;;;;4.90;4.40;;;;;;;4.81;34.25;98572.50;8314318;28;20243;-87
2022/03/07 00:55:35;;;;;;;5.00;4.50;;;;;;;4.56;33.81;98572.75;8314884;28;20278;-85
2022/03/07 00:59:40;;;;;;;5.07;4.57;;;;;;;4.67;34.64;98570.09;8315035;28;20229;-85
2022/03/07 01:03:43;;;;;;;5.07;4.57;;;;;;;4.08;35.20;98568.09;8335314;28;20467;-87
2022/03/07 01:07:46;;;;;;;5.50;4.80;;;;;;;3.86;35.28;98569.97;8352507;28;20399;-86
2022/03/07 01:11:54;;;;;;;5.90;5.17;;;;;;;3.59;36.37;98562.47;8353765;28;20244;-86
2022/03/07 01:16:01;;;;;;;6.23;5.50;;;;;;;3.70;36.27;98564.09;8354428;28;20235;-86
2022/03/07 01:20:06;;;;;;;5.67;5.13;;;;;;;4.06;36.11;98557.00;8352915;28;20299;-85
2022/03/07 01:24:10;;;;;;;6.00;5.40;;;;;;;3.84;36.96;98561.44;8354439;28;20234;-85
2022/03/07 01:28:13;;;;;;;6.33;5.70;;;;;;;3.88;36.99;98558.00;8353869;28;20228;-85
2022/03/07 01:32:18;;;;;;;7.13;6.43;;;;;;;4.05;36.65;98552.72;8352220;28;20232;-86
2022/03/07 01:36:22;;;;;;;7.77;7.00;;;;;;;3.90;36.99;98552.84;8353537;28;20235;-86
2022/03/07 01:40:26;;;;;;;7.53;6.83;;;;;;;3.94;37.27;98548.53;8352571;28;20228;-84
2022/03/07 01:44:29;;;;;;;8.10;7.30;;;;;;;4.05;36.72;98557.00;8354420;28;20232;-84
2022/03/07 01:48:34;;;;;;;8.80;7.80;;;;;;;4.24;36.28;98543.13;8353340;28;20240;-85
2022/03/07 01:52:40;;;;;;;8.13;7.23;;;;;;;4.29;36.21;98543.97;8354452;28;20228;-85
2022/03/07 01:56:46;;;;;;;9.60;8.67;;;;;;;3.85;36.81;98547.78;8355209;28;20204;-85
2022/03/07 02:00:49;;;;;;;9.10;8.30;;;;;;;4.38;35.75;98537.03;8354043;28;20472;-85
2022/03/07 02:04:54;;;;;;;9.43;8.53;;;;;;;4.26;36.49;98538.84;8352666;28;20234;-85
2022/03/07 02:08:58;;;;;;;9.63;8.70;;;;;;;4.26;36.57;98540.56;8355220;28;20231;-86
2022/03/07 02:13:01;;;;;;;10.40;9.43;;;;;;;4.27;36.51;98534.59;8351999;28;20228;-85
2022/03/07 02:17:05;;;;;;;9.93;8.77;;;;;;;4.28;36.21;98537.16;8349785;28;20551;-85
2022/03/07 02:21:15;;;;;;;13.10;9.27;;;;;;;4.21;36.75;98548.31;8350287;28;20292;-85
2022/03/07 02:25:20;;;;;;;10.20;9.20;;;;;;;4.21;36.55;98540.63;8350434;28;20232;-85
2022/03/07 02:29:23;;;;;;;9.70;8.73;;;;;;;4.42;36.35;98541.28;8351184;28;20235;-85
2022/03/07 02:33:27;;;;;;;10.10;8.73;;;;;;;4.09;37.05;98535.59;8333778;28;20559;-84
2022/03/07 02:37:33;;;;;;;9.50;8.60;;;;;;;4.25;36.96;98529.47;8333430;28;20227;-85
2022/03/07 02:41:38;;;;;;;10.60;9.20;;;;;;;3.75;37.52;98532.47;8349394;28;20299;-85
2022/03/07 02:45:41;;;;;;;10.17;9.00;;;;;;;4.05;37.39;98534.78;8350492;28;21299;-84
2022/03/07 02:49:44;;;;;;;10.20;9.07;;;;;;;4.25;36.97;98537.16;8350782;28;20236;-84
2022/03/07 02:53:49;;;;;;;10.47;9.23;;;;;;;3.75;38.06;98532.47;8350565;28;20236;-85
2022/03/07 02:57:54;;;;;;;10.00;9.00;;;;;;;4.09;36.99;98539.03;8350478;28;20534;-87
2022/03/07 03:01:58;;;;;;;9.07;8.27;;;;;;;4.25;37.14;98539.72;8350322;28;20231;-87
2022/03/07 03:06:02;;;;;;;9.80;8.80;;;;;;;4.46;36.91;98538.66;8349535;28;20414;-87
2022/03/07 03:10:06;;;;;;;11.23;8.70;;;;;;;4.22;37.38;98544.88;8349313;28;20232;-86
2022/03/07 03:14:12;;;;;;;9.80;8.70;;;;;;;4.04;37.41;98539.94;8349965;28;20235;-87
2022/03/07 03:18:15;;;;;;;8.80;7.90;;;;;;;4.16;37.98;98541.53;8349385;28;20236;-87
2022/03/07 03:22:19;;;;;;;8.77;7.97;;;;;;;4.23;37.66;98544.03;8348619;28;20227;-87
2022/03/07 03:26:23;;;;;;;8.90;8.00;;;;;;;4.30;37.60;98548.22;8348817;28;20228;-87
2022/03/07 03:30:28;;;;;;;10.07;8.63;;;;;;;4.19;37.60;98544.91;8316480;28;20287;-87
2022/03/07 03:34:32;;;;;;;9.17;8.07;;;;;;;4.19;37.73;98549.19;8349152;28;20246;-84
2022/03/07 03:38:41;;;;;;;8.53;7.63;;;;;;;4.08;37.68;98545.00;8348675;28;20251;-85
2022/03/07 03:42:45;;;;;;;9.30;8.10;;;;;;;3.63;38.41;98548.78;8348746;28;20432;-85
2022/03/07 03:46:50;;;;;;;9.27;7.93;;;;;;;4.12;37.88;98553.53;8339285;28;20236;-85
2022/03/07 03:50:54;;;;;;;8.60;7.70;;;;;;;4.09;37.88;98561.22;8347722;28;20236;-86
2022/03/07 03:54:57;;;;;;;7.97;6.97;;;;;;;4.03;38.11;98556.16;8347870;28;20571;-88
2022/03/07 03:59:00;;;;;;;7.83;7.03;;;;;;;4.05;37.74;98551.88;8347363;28;20242;-87
2022/03/07 04:03:05;;;;;;;7.70;6.90;;;;;;;4.13;37.14;98556.94;8347761;28;20228;-88
2022/03/07 04:07:09;;;;;;;7.80;7.00;;;;;;;3.68;37.05;98554.75;8331417;28;20246;-89
2022/03/07 04:11:12;;;;;;;8.57;6.87;;;;;;;4.12;36.57;98566.34;8348318;28;20239;-87
2022/03/07 04:15:16;;;;;;;7.80;6.43;;;;;;;4.04;36.43;98560.44;8348427;28;20231;-86
2022/03/07 04:19:21;;;;;;;9.93;6.93;;;;;;;3.61;36.58;98561.59;8348472;28;20239;-86
2022/03/07 04:23:24;;;;;;;7.93;6.63;;;;;;;3.91;35.92;98557.97;8348684;28;20243;-87
2022/03/07 04:27:28;;;;;;;7.40;6.70;;;;;;;3.85;35.42;98564.88;8348537;28;20247;-86
2022/03/07 04:31:31;;;;;;;8.30;7.17;;;;;;;3.76;35.51;98567.50;8339841;28;20408;-86
2022/03/07 04:35:36;;;;;;;7.83;6.40;;;;;;;3.55;36.44;98571.91;8346856;28;20227;-86
2022/03/07 04:39:40;;;;;;;7.90;7.20;;;;;;;3.35;35.78;98559.22;8347136;28;20228;-88
2022/03/07 04:43:44;;;;;;;7.93;7.17;;;;;;;2.79;36.50;98573.13;8330657;28;20431;-87
2022/03/07 04:47:47;;;;;;;6.90;6.27;;;;;;;3.22;36.41;98571.25;8346351;28;20240;-88
2022/03/07 04:51:53;;;;;;;7.70;6.90;;;;;;;3.15;36.53;98579.81;8346707;28;20543;-87
2022/03/07 04:55:59;;;;;;;7.90;7.10;;;;;;;3.41;36.24;98587.34;8331576;28;20350;-88
2022/03/07 05:00:03;;;;;;;9.63;7.57;;;;;;;3.41;36.19;98581.34;8344107;28;20232;-87
2022/03/07 05:04:06;;;;;;;8.43;7.63;;;;;;;3.61;36.33;98591.50;8316801;28;20239;-87
2022/03/07 05:08:13;;;;;;;9.27;8.00;;;;;;;3.33;37.62;98596.75;8314772;28;20295;-87
2022/03/07 05:12:16;;;;;;;8.07;6.90;;;;;;;3.35;37.98;98591.63;8314747;28;20433;-87
2022/03/07 05:16:22;;;;;;;7.87;7.13;;;;;;;3.63;37.54;98605.16;8314171;28;20436;-87
2022/03/07 05:20:27;;;;;;;8.57;7.67;;;;;;;3.45;38.02;98601.00;8314567;28;20225;-87
2022/03/07 05:24:52;;;;;;;9.33;7.10;;;;;;;3.49;37.82;98600.13;8308766;28;20224;-86
2022/03/07 05:28:55;;;;;;;8.53;7.30;;;;;;;3.53;37.93;98602.63;8314580;28;20232;-87
2022/03/07 05:32:59;;;;;;;8.70;7.73;;;;;;;3.30;37.82;98607.88;8313120;28;20237;-85
2022/03/07 05:37:03;;;;;;;8.33;7.53;;;;;;;3.25;38.11;98613.88;8312837;28;20232;-87
2022/03/07 05:41:08;;;;;;;9.70;8.13;;;;;;;3.53;37.94;98607.75;8313986;28;20236;-84
2022/03/07 05:45:13;;;;;;;12.40;9.13;;;;;;;2.87;39.02;98609.75;8314176;28;20249;-85
2022/03/07 05:49:16;;;;;;;9.77;8.70;;;;;;;3.16;38.68;98609.66;8313877;28;20232;-85
2022/03/07 05:53:23;;;;;;;9.63;7.63;;;;;;;3.39;38.11;98598.44;8315953;28;20236;-85
2022/03/07 05:57:28;;;;;;;13.03;8.10;;;;;;;3.33;38.63;98610.44;8319237;28;20532;-85
2022/03/07 06:01:34;;;;;;;16.20;8.23;;;;;;;3.52;38.13;98618.00;8325775;28;20220;-88
2022/03/07 06:05:37;;;;;;;9.43;8.07;;;;;;;3.39;37.59;98606.13;8348430;28;20228;-85
2022/03/07 06:09:42;;;;;;;9.90;8.23;;;;;;;3.38;37.86;98632.59;8328067;28;20233;-84
2022/03/07 06:13:47;;;;;;;11.73;8.80;;;;;;;3.60;37.34;98623.94;8340156;28;20237;-85
2022/03/07 06:17:51;;;;;;;10.30;9.20;;;;;;;4.00;36.45;98625.38;8342987;28;20232;-83
2022/03/07 06:21:54;;;;;;;10.00;8.63;;;;;;;4.29;36.48;98632.84;8334473;28;20255;-84
2022/03/07 06:25:58;;;;;;;9.07;8.17;;;;;;;4.76;35.53;98626.44;8326500;28;20235;-84
2022/03/07 06:30:04;;;;;;;10.10;8.70;;;;;;;4.73;35.54;98633.31;8301493;28;20228;-83
2022/03/07 06:34:08;;;;;;;9.23;8.30;;;;;;;4.89;35.34;98624.56;8348415;28;20239;-83
2022/03/07 06:38:11;;;;;;;11.50;8.13;;;;;;;4.98;35.28;98634.75;8351442;28;20228;-85
2022/03/07 06:42:14;;;;;;;9.87;8.63;;;;;;;4.92;34.96;98641.66;8351456;28;20232;-84
2022/03/07 06:46:30;;;;;;;10.33;8.77;;;;;;;5.44;34.29;98646.19;8351412;28;20235;-83
2022/03/07 06:50:33;;;;;;;9.67;8.53;;;;;;;5.48;34.39;98640.13;8350720;28;20626;-85
2022/03/07 06:54:37;;;;;;;10.10;9.07;;;;;;;5.58;33.97;98651.13;8350342;28;20239;-85
2022/03/07 06:58:41;;;;;;;9.83;8.77;;;;;;;5.71;33.52;98644.94;8349945;28;20236;-84
2022/03/07 07:02:50;;;;;;;9.77;8.87;;;;;;;5.41;33.25;98643.66;8349964;28;20294;-85
2022/03/07 07:06:54;;;;;;;10.53;9.43;;;;;;;5.15;33.14;98646.53;8350532;28;20291;-85
2022/03/07 07:10:58;;;;;;;10.13;9.10;;;;;;;5.70;32.76;98655.28;8349375;28;20228;-84
2022/03/07 07:15:01;;;;;;;10.80;9.70;;;;;;;4.77;33.62;98665.78;8349858;28;20258;-84
2022/03/07 07:19:06;;;;;;;11.20;10.03;;;;;;;5.93;32.40;98663.50;8332445;28;20251;-84
2022/03/07 07:23:09;;;;;;;13.00;9.17;;;;;;;6.30;31.95;98665.53;8349890;28;20299;-84
2022/03/07 07:27:13;;;;;;;11.87;8.97;;;;;;;6.49;31.84;98662.69;8348516;28;20243;-84
2022/03/07 07:31:17;;;;;;;10.77;9.30;;;;;;;6.81;30.97;98670.69;8348944;28;20235;-84
2022/03/07 07:35:22;;;;;;;9.93;8.57;;;;;;;6.33;30.53;98664.66;8365095;28;20235;-84
2022/03/07 07:39:26;;;;;;;9.80;8.77;;;;;;;6.73;30.12;98684.59;8349481;28;20243;-84
2022/03/07 07:43:32;;;;;;;59.60;35.83;;;;;;;9.94;66.39;98683.91;8351241;28;20232;-92
2022/03/07 07:47:36;;;;;;;19.13;12.17;;;;;;;9.57;39.85;98680.63;8358250;28;20547;-91
2022/03/07 07:51:42;;;;;;;10.70;9.60;;;;;;;7.89;29.09;98675.44;8348600;28;20228;-91
2022/03/07 07:55:47;;;;;;;10.63;8.60;;;;;;;8.62;26.76;98685.78;8345729;28;20438;-83
2022/03/07 07:59:50;;;;;;;9.13;8.23;;;;;;;8.54;27.32;98696.28;8348068;28;20231;-83
2022/03/07 08:04:14;;;;;;;15.00;8.70;;;;;;;8.19;29.32;98692.78;8360680;28;20743;-84
2022/03/07 08:08:18;;;;;;;10.20;9.30;;;;;;;8.25;26.84;98701.28;8348658;28;20396;-83
2022/03/07 08:12:22;;;;;;;11.27;8.43;;;;;;;8.58;26.25;98699.66;8348511;28;20299;-83
2022/03/07 08:16:25;;;;;;;9.60;8.60;;;;;;;8.86;25.28;98707.56;8347326;28;20427;-84
2022/03/07 08:20:28;;;;;;;9.77;8.37;;;;;;;8.39;26.12;98715.53;8347584;28;20546;-84
2022/03/07 08:24:33;;;;;;;11.40;8.30;;;;;;;8.82;25.51;98705.94;8347338;28;20265;-85
2022/03/07 08:28:36;;;;;;;9.83;8.50;;;;;;;7.26;26.93;98715.41;8348616;28;20429;-85
2022/03/07 08:32:41;;;;;;;14.10;8.30;;;;;;;5.91;27.32;98720.97;8348792;28;20228;-84
2022/03/07 08:36:44;;;;;;;11.57;8.53;;;;;;;6.15;30.71;98712.06;8348902;28;20531;-85
2022/03/07 08:40:49;;;;;;;8.30;7.23;;;;;;;6.60;26.83;98718.22;8348445;28;20242;-85
2022/03/07 08:44:52;;;;;;;7.73;6.93;;;;;;;6.36;26.80;98724.63;8348362;28;20410;-85
2022/03/07 08:48:56;;;;;;;14.03;7.07;;;;;;;5.63;28.02;98723.88;8348104;28;20239;-85
2022/03/07 08:52:59;;;;;;;6.53;5.90;;;;;;;6.72;27.23;98731.78;8348223;28;20228;-84
2022/03/07 08:57:05;;;;;;;7.93;7.23;;;;;;;7.17;26.37;98737.00;8348652;28;20239;-84
2022/03/07 09:01:09;;;;;;;8.87;7.47;;;;;;;6.67;26.62;98736.19;8348325;28;20234;-85
2022/03/07 09:05:13;;;;;;;7.10;6.40;;;;;;;8.82;25.22;98728.34;8316195;28;20287;-83
2022/03/07 09:09:17;;;;;;;7.67;6.87;;;;;;;8.22;25.09;98735.72;8322436;28;20232;-84
2022/03/07 09:13:36;;;;;;;8.77;6.67;;;;;;;6.16;27.63;98742.06;8322626;28;20339;-85
2022/03/07 09:17:39;;;;;;;6.93;6.23;;;;;;;6.66;28.01;98743.03;8323715;28;20558;-84
2022/03/07 09:21:42;;;;;;;8.20;6.63;;;;;;;4.89;29.50;98748.66;8321560;28;20555;-84
2022/03/07 09:25:47;;;;;;;8.60;7.70;;;;;;;6.51;28.02;98749.28;8324602;28;20236;-83
2022/03/07 09:29:55;;;;;;;7.97;6.80;;;;;;;6.25;27.28;98739.38;8329721;28;20524;-83
2022/03/07 09:33:59;;;;;;;8.50;7.60;;;;;;;6.30;27.31;98736.72;8324523;28;20236;-84
2022/03/07 09:38:04;;;;;;;10.40;8.17;;;;;;;6.08;27.84;98737.03;8325572;28;20243;-85
2022/03/07 09:42:09;;;;;;;7.70;6.63;;;;;;;6.59;26.40;98734.56;8325789;28;20237;-84
2022/03/07 09:46:14;;;;;;;9.00;8.10;;;;;;;5.81;27.73;98740.81;8325712;28;20244;-83
2022/03/07 09:50:18;;;;;;;8.77;7.60;;;;;;;6.30;27.44;98729.00;8324832;28;20229;-84
2022/03/07 09:54:23;;;;;;;9.90;8.48;;;;;;;8.89;24.70;98725.56;8322695;28;20420;-84
2022/03/07 09:58:26;;;;;;;8.93;7.13;;;;;;;7.33;25.77;98740.13;8347536;28;20232;-84
2022/03/07 10:02:32;;;;;;;11.43;7.30;;;;;;;7.61;27.02;98748.19;8354673;28;20286;-84
2022/03/07 10:06:36;;;;;;;8.13;7.33;;;;;;;7.51;25.84;98754.41;8343725;28;20350;-85
2022/03/07 10:10:42;;;;;;;12.67;11.07;;;;;;;7.84;25.20;98750.31;8354366;28;20230;-84
2022/03/07 10:14:46;;;;;;;9.23;8.33;;;;;;;7.48;25.07;98759.63;8358929;28;20283;-84
2022/03/07 10:18:52;;;;;;;9.90;8.77;;;;;;;8.23;23.69;98740.88;8354525;28;20259;-84
2022/03/07 10:22:58;;;;;;;9.37;7.77;;;;;;;8.14;24.29;98741.06;8354483;28;20285;-85
2022/03/07 10:27:07;;;;;;;8.03;7.23;;;;;;;10.19;23.83;98740.94;8355756;28;20239;-84
2022/03/07 10:31:15;;;;;;;8.83;7.90;;;;;;;7.44;25.36;98754.56;8358431;28;20240;-85
2022/03/07 10:35:27;;;;;;;8.50;7.70;;;;;;;9.88;23.86;98740.97;8355195;28;20243;-83
2022/03/07 10:39:30;;;;;;;9.10;7.80;;;;;;;8.47;23.78;98751.53;8359784;28;20232;-84
2022/03/07 10:43:37;;;;;;;9.07;8.23;;;;;;;7.63;25.60;98742.16;8355183;28;20220;-84
2022/03/07 10:47:42;;;;;;;9.33;8.47;;;;;;;8.57;23.97;98741.88;8353678;28;20244;-83
2022/03/07 10:51:58;;;;;;;9.20;8.30;;;;;;;10.42;22.96;98729.88;8354827;28;20243;-83
2022/03/07 10:56:02;;;;;;;10.53;8.33;;;;;;;10.76;22.43;98729.66;8347711;28;20238;-84
2022/03/07 11:00:09;;;;;;;10.23;8.23;;;;;;;8.85;23.96;98739.44;8353334;28;20235;-82
2022/03/07 11:04:21;;;;;;;9.40;8.50;;;;;;;7.13;24.89;98751.66;8332417;28;20299;-82
2022/03/07 11:08:29;;;;;;;10.30;9.30;;;;;;;8.98;23.71;98732.22;8320428;28;20232;-85
2022/03/07 11:12:33;;;;;;;12.27;9.60;;;;;;;7.31;25.24;98745.34;8319982;28;20225;-83
2022/03/07 11:16:37;;;;;;;9.47;8.50;;;;;;;8.25;24.72;98732.25;8322096;28;20236;-82
2022/03/07 11:20:41;;;;;;;9.10;8.20;;;;;;;8.19;24.57;98722.91;8318352;28;20356;-82
2022/03/07 11:24:46;;;;;;;9.20;8.30;;;;;;;7.10;25.18;98725.13;8316586;28;20236;-81
2022/03/07 11:28:51;;;;;;;12.50;9.23;;;;;;;7.80;24.41;98712.56;8320687;28;20239;-81
2022/03/07 11:32:54;;;;;;;8.67;7.87;;;;;;;8.60;23.99;98697.88;8323396;28;20423;-81
2022/03/07 11:36:58;;;;;;;10.00;8.47;;;;;;;7.72;24.92;98710.16;8324315;28;20236;-81
2022/03/07 11:41:06;;;;;;;9.40;8.50;;;;;;;8.55;24.33;98682.50;8323569;28;20240;-81
2022/03/07 11:45:11;;;;;;;8.67;7.47;;;;;;;7.66;25.38;98689.66;8325279;28;20247;-81
2022/03/07 11:49:26;;;;;;;8.03;7.23;;;;;;;9.07;24.09;98689.81;8321306;28;20256;-83
2022/03/07 11:53:29;;;;;;;8.17;7.40;;;;;;;7.92;24.69;98670.19;8321180;28;20237;-82
2022/03/07 11:57:36;;;;;;;10.53;6.87;;;;;;;9.81;23.86;98673.06;8321325;28;20236;-82
2022/03/07 12:01:40;;;;;;;8.00;7.20;;;;;;;9.76;23.45;98673.19;8332004;28;20232;-81
2022/03/07 12:05:44;;;;;;;7.70;6.10;;;;;;;8.77;24.31;98669.88;8356279;28;20236;-82
2022/03/07 12:09:47;;;;;;;7.70;6.90;;;;;;;9.77;23.64;98659.38;8351846;28;20454;-83
2022/03/07 12:13:53;;;;;;;7.60;6.20;;;;;;;9.98;23.63;98657.03;8351461;28;20247;-81
2022/03/07 12:17:57;;;;;;;6.27;5.47;;;;;;;9.57;23.38;98677.19;8353108;28;20242;-83
2022/03/07 12:22:10;;;;;;;6.63;5.93;;;;;;;9.32;23.72;98651.22;8356185;28;20421;-81
2022/03/07 12:26:13;;;;;;;6.60;5.60;;;;;;;8.27;24.60;98651.31;8351053;28;20239;-80
2022/03/07 12:30:36;;;;;;;5.90;5.30;;;;;;;7.94;25.16;98650.38;8353298;28;20231;-83
2022/03/07 12:34:42;;;;;;;6.23;5.53;;;;;;;8.25;24.44;98639.34;8355288;28;20228;-83
2022/03/07 12:39:06;;;;;;;7.30;6.00;;;;;;;8.30;25.26;98640.06;8384389;27;20563;-62
2022/03/07 12:43:09;;;;;;;6.13;5.63;;;;;;;7.81;26.11;98626.59;8376960;28;20545;-63
2022/03/07 12:47:12;;;;;;;6.87;6.17;;;;;;;8.84;25.21;98616.34;8375855;28;20235;-63
2022/03/07 12:51:17;;;;;;;7.07;5.30;;;;;;;7.63;26.12;98622.69;8375588;28;20235;-63
2022/03/07 12:55:22;;;;;;;7.63;6.83;;;;;;;8.92;24.62;98604.06;8375195;28;20254;-63
2022/03/07 12:59:27;;;;;;;8.77;7.17;;;;;;;10.14;23.96;98597.84;8375125;28;20234;-63
2022/03/07 13:03:36;;;;;;;8.23;5.93;;;;;;;9.03;25.62;98610.69;8372499;28;20230;-64
2022/03/07 13:07:40;;;;;;;5.00;4.50;;;;;;;10.16;24.17;98604.66;8367337;28;20426;-63
2022/03/07 13:11:47;;;;;;;5.50;4.93;;;;;;;10.46;23.57;98603.75;8374498;28;20228;-64
2022/03/07 13:15:51;;;;;;;4.80;4.40;;;;;;;10.26;23.77;98591.44;8372170;28;20338;-59
2022/03/07 13:19:55;;;;;;;7.83;4.73;;;;;;;10.23;24.31;98596.72;8372977;28;20386;-59
2022/03/07 13:23:58;;;;;;;7.43;4.90;;;;;;;11.27;23.06;98584.47;8373472;28;20231;-59
2022/03/07 13:28:03;;;;;;;6.23;4.30;;;;;;;10.86;22.42;98586.84;8373404;28;20227;-59
2022/03/07 13:32:07;;;;;;;6.47;4.53;;;;;;;9.02;25.00;98589.16;8373454;28;20526;-58
2022/03/07 13:36:11;;;;;;;13.53;4.10;;;;;;;13.01;51.66;98582.63;8370856;28;20239;-59
2022/03/07 13:40:16;;;;;;;10.47;4.10;;;;;;;14.62;41.92;98590.66;8373312;28;20234;-58
2022/03/07 13:44:21;;;;;;;5.30;3.63;;;;;;;15.12;34.95;98578.50;8372886;28;20542;-56
2022/03/07 13:48:25;;;;;;;10.37;3.90;;;;;;;15.29;33.58;98580.22;8362351;28;20287;-55
2022/03/07 13:52:30;;;;;;;4.67;4.17;;;;;;;13.35;21.26;98573.34;8348883;28;20231;-58
2022/03/07 13:56:33;;;;;;;7.20;4.73;;;;;;;13.18;20.98;98574.91;8343149;28;20232;-58
2022/03/07 14:00:37;;;;;;;5.33;4.63;;;;;;;11.73;22.08;98574.94;8351393;28;20225;-58
2022/03/07 14:04:54;;;;;;;4.90;4.40;;;;;;;11.76;21.88;98564.44;8348930;28;20498;-58
2022/03/07 14:08:57;;;;;;;6.20;4.30;;;;;;;10.28;22.96;98577.56;8339064;28;20306;-64
2022/03/07 14:13:02;;;;;;;6.47;4.33;;;;;;;10.04;23.95;98580.94;8349698;28;20238;-64
2022/03/07 14:17:16;;;;;;;5.07;4.57;;;;;;;9.74;23.79;98574.09;8349905;28;20232;-64
2022/03/07 14:21:19;;;;;;;6.77;4.63;;;;;;;9.06;24.34;98580.41;8349587;28;20404;-63
2022/03/07 14:25:36;;;;;;;8.83;5.13;;;;;;;8.94;24.72;98573.03;8348278;28;20232;-63
2022/03/07 14:29:39;;;;;;;6.87;5.00;;;;;;;9.61;24.45;98566.78;8351217;28;20258;-64
2022/03/07 14:33:44;;;;;;;6.27;4.63;;;;;;;10.08;23.91;98560.09;8350900;28;20239;-63
2022/03/07 14:37:47;;;;;;;7.40;4.50;;;;;;;9.34;24.75;98558.97;8350883;28;20246;-64
2022/03/07 14:41:50;;;;;;;4.90;4.40;;;;;;;8.28;25.57;98551.53;8350808;28;20232;-64
2022/03/07 14:46:06;;;;;;;6.87;4.70;;;;;;;8.70;25.33;98556.47;8350288;28;20477;-64
2022/03/07 14:50:12;;;;;;;5.90;4.37;;;;;;;8.96;25.27;98551.41;8347436;28;20342;-63
2022/03/07 14:54:15;;;;;;;4.80;4.33;;;;;;;9.22;25.47;98549.84;8347817;28;20235;-63
2022/03/07 14:58:19;;;;;;;6.57;4.90;;;;;;;9.78;23.99;98546.41;8325814;28;20247;-64
2022/03/07 15:02:22;;;;;;;5.70;4.30;;;;;;;10.23;24.09;98547.53;8340193;28;20236;-63
2022/03/07 15:06:27;;;;;;;6.53;5.13;;;;;;;9.23;24.69;98550.69;8349985;28;20425;-63
2022/03/07 15:10:31;;;;;;;7.80;5.47;;;;;;;9.47;25.07;98541.34;8349936;28;20255;-63
2022/03/07 15:14:40;;;;;;;7.17;5.30;;;;;;;8.99;25.05;98541.00;8349131;28;20235;-64
2022/03/07 15:18:43;;;;;;;5.83;4.80;;;;;;;9.42;25.06;98536.31;8349416;28;20243;-63
2022/03/07 15:22:49;;;;;;;7.03;5.60;;;;;;;8.26;26.08;98541.25;8334442;28;20431;-64
2022/03/07 15:26:52;;;;;;;5.30;4.80;;;;;;;8.60;26.02;98541.25;8317579;28;20229;-64
2022/03/07 15:30:56;;;;;;;7.57;5.80;;;;;;;8.29;26.15;98546.34;8316940;28;20228;-64
2022/03/07 15:34:59;;;;;;;6.97;5.17;;;;;;;8.83;25.47;98544.91;8349048;28;20228;-64
2022/03/07 15:39:06;;;;;;;6.60;5.60;;;;;;;8.75;25.45;98546.88;8348643;28;20235;-64
2022/03/07 15:43:09;;;;;;;8.73;4.70;;;;;;;8.65;25.92;98545.44;8346911;28;20230;-63
2022/03/07 15:47:12;;;;;;;8.73;4.77;;;;;;;8.95;26.33;98533.41;8348324;28;20242;-64
2022/03/07 15:51:16;;;;;;;7.23;5.33;;;;;;;9.20;25.75;98531.78;8348693;28;20243;-66
2022/03/07 15:55:21;;;;;;;6.13;4.93;;;;;;;9.33;25.48;98531.44;8348342;28;20236;-64
2022/03/07 15:59:25;;;;;;;6.07;4.50;;;;;;;9.36;25.48;98528.75;8345404;28;20235;-64
2022/03/07 16:03:28;;;;;;;6.40;5.20;;;;;;;8.88;25.36;98537.06;8347775;28;20295;-59
2022/03/07 16:07:31;;;;;;;6.37;5.40;;;;;;;8.92;26.06;98528.31;8347576;28;20243;-61
2022/03/07 16:11:36;;;;;;;5.27;4.70;;;;;;;8.91;25.38;98522.31;8347620;28;20414;-59
2022/03/07 16:15:41;;;;;;;8.00;4.70;;;;;;;8.94;25.73;98521.38;8347619;28;20437;-59
2022/03/07 16:19:44;;;;;;;7.67;5.60;;;;;;;7.87;26.75;98525.06;8347740;28;20242;-60
2022/03/07 16:23:47;;;;;;;7.67;5.80;;;;;;;7.91;27.33;98524.09;8347397;28;20432;-59
2022/03/07 16:27:51;;;;;;;10.70;6.37;;;;;;;7.58;27.91;98529.19;8347732;28;20239;-59
2022/03/07 16:31:55;;;;;;;5.67;5.10;;;;;;;7.41;27.63;98525.25;8347757;28;20245;-59
2022/03/07 16:35:58;;;;;;;7.87;5.30;;;;;;;8.00;27.42;98531.59;8347516;28;20508;-57
2022/03/07 16:40:01;;;;;;;5.67;4.80;;;;;;;7.57;27.42;98535.19;8347620;28;20242;-57
2022/03/07 16:44:05;;;;;;;7.43;5.73;;;;;;;7.72;27.41;98544.31;8346702;28;20235;-57
2022/03/07 16:48:09;;;;;;;9.30;4.67;;;;;;;8.00;27.62;98553.06;8347324;28;20240;-57
2022/03/07 16:52:12;;;;;;;7.10;4.70;;;;;;;7.89;27.47;98552.47;8346523;28;20228;-57
2022/03/07 16:56:15;;;;;;;7.70;4.60;;;;;;;7.62;27.96;98554.84;8346454;28;20243;-57
2022/03/07 17:00:20;;;;;;;7.90;4.70;;;;;;;7.22;28.30;98563.44;8346287;28;20569;-57
2022/03/07 17:04:23;;;;;;;8.33;5.60;;;;;;;7.63;27.86;98559.13;8344299;28;20240;-57
2022/03/07 17:08:26;;;;;;;7.13;6.43;;;;;;;7.76;27.77;98564.81;8347098;28;20232;-57
2022/03/07 17:12:30;;;;;;;9.73;5.03;;;;;;;7.68;28.00;98573.63;8347013;28;20238;-57
2022/03/07 17:16:34;;;;;;;5.03;4.53;;;;;;;7.28;28.17;98583.06;8338305;28;20224;-59
2022/03/07 17:20:43;;;;;;;5.33;4.77;;;;;;;7.55;28.10;98591.94;8345757;28;20224;-58
2022/03/07 17:24:46;;;;;;;6.00;5.20;;;;;;;7.70;28.06;98601.06;8350220;28;20228;-60
2022/03/07 17:28:49;;;;;;;7.23;4.67;;;;;;;7.69;27.78;98606.25;8344509;28;20235;-60
2022/03/07 17:32:53;;;;;;;5.30;4.60;;;;;;;7.82;27.94;98602.50;8343061;28;20228;-60
2022/03/07 17:36:57;;;;;;;5.40;4.50;;;;;;;7.62;28.11;98606.38;8352562;28;20569;-59
2022/03/07 17:41:00;;;;;;;6.90;5.07;;;;;;;7.88;28.97;98607.53;8352779;28;20526;-59
2022/03/07 17:45:05;;;;;;;8.43;5.47;;;;;;;7.90;29.35;98607.47;8351933;28;20231;-60
2022/03/07 17:49:10;;;;;;;8.77;6.40;;;;;;;7.81;29.55;98619.72;8348196;28;20412;-60
2022/03/07 17:53:14;;;;;;;6.43;5.33;;;;;;;7.81;29.60;98617.13;8350726;28;20243;-63
2022/03/07 17:57:17;;;;;;;19.43;12.10;;;;;;;7.67;29.75;98624.31;8351785;28;20534;-64
2022/03/07 18:01:20;;;;;;;22.43;15.27;;;;;;;7.61;30.40;98627.88;8351603;28;20534;-64
2022/03/07 18:05:25;;;;;;;19.83;14.27;;;;;;;7.41;30.78;98636.06;8351979;28;20235;-64
2022/03/07 18:09:28;;;;;;;36.13;24.40;;;;;;;7.42;31.23;98626.59;8351670;28;20234;-64
2022/03/07 18:13:31;;;;;;;15.87;10.70;;;;;;;7.35;30.79;98636.19;8350895;28;20232;-65
2022/03/07 18:17:34;;;;;;;10.50;7.90;;;;;;;7.26;31.51;98635.53;8351013;28;20232;-64
2022/03/07 18:21:39;;;;;;;10.07;7.23;;;;;;;7.19;31.53;98638.19;8351643;28;20236;-65
2022/03/07 18:25:42;;;;;;;7.27;5.87;;;;;;;7.11;31.67;98631.53;8351267;28;20232;-64
2022/03/07 18:29:45;;;;;;;8.40;5.60;;;;;;;7.14;32.23;98646.91;8350880;28;20236;-64
2022/03/07 18:33:48;;;;;;;10.87;9.30;;;;;;;7.08;32.43;98652.19;8351278;28;20232;-64
2022/03/07 18:37:52;;;;;;;9.83;6.17;;;;;;;6.90;32.28;98650.81;8351204;28;20570;-64
2022/03/07 18:41:56;;;;;;;32.47;29.07;;;;;;;6.75;32.50;98662.22;8350375;28;20290;-64
2022/03/07 18:45:59;;;;;;;31.83;26.83;;;;;;;6.76;32.94;98659.63;8349872;28;20235;-64
2022/03/07 18:50:06;;;;;;;19.27;8.47;;;;;;;8.66;69.41;98658.97;8351071;28;20232;-65
2022/03/07 18:54:11;;;;;;;18.92;14.27;;;;;;;8.92;33.34;98657.47;8348798;28;20423;-66
2022/03/07 18:58:14;;;;;;;15.07;13.37;;;;;;;7.81;32.56;98665.28;8349301;28;20243;-64
2022/03/07 19:02:17;;;;;;;12.47;11.23;;;;;;;7.61;32.76;98658.81;8349584;28;20224;-64
2022/03/07 19:06:21;;;;;;;18.97;12.33;;;;;;;7.31;32.83;98665.47;8349923;28;20239;-64
2022/03/07 19:10:25;;;;;;;13.77;11.50;;;;;;;7.11;32.80;98677.88;8349555;28;20236;-64
2022/03/07 19:14:28;;;;;;;15.10;12.53;;;;;;;6.80;33.23;98683.59;8349647;28;20254;-64
2022/03/07 19:18:31;;;;;;;14.33;12.57;;;;;;;6.69;33.63;98686.34;8349098;28;20527;-65
2022/03/07 19:22:40;;;;;;;16.17;13.52;;;;;;;7.20;32.99;98688.88;8347548;28;20418;-65